sensor_id;sensor_type;location;lat;lon;timestamp;P1;durP1;ratioP1;P2;durP2;ratioP2
57609;SDS011;43435;46.186;9.024;2024-01-15T13:21:15;2.92;;;1.55;;
57609;SDS011;43435;46.186;9.024;2024-01-15T13:23:40;3.60;;;1.70;;
57609;SDS011;43435;46.186;9.024;2024-01-15T13:26:06;2.58;;;1.55;;
57609;SDS011;43435;46.186;9.024;2024-01-15T13:28:32;4.30;;;1.80;;
57609;SDS011;43435;46.186;9.024;2024-01-15T13:30:57;4.18;;;1.67;;
57609;SDS011;43435;46.186;9.024;2024-01-15T13:33:22;2.60;;;2.00;;
57609;SDS011;43435;46.186;9.024;2024-01-15T13:35:48;3.38;;;1.58;;
57609;SDS011;43435;46.186;9.024;2024-01-15T13:38:16;3.88;;;1.75;;
57609;SDS011;43435;46.186;9.024;2024-01-15T13:40:41;3.53;;;1.88;;
57609;SDS011;43435;46.186;9.024;2024-01-15T13:43:07;3.60;;;1.45;;
57609;SDS011;43435;46.186;9.024;2024-01-15T13:45:33;2.58;;;1.52;;
57609;SDS011;43435;46.186;9.024;2024-01-15T13:47:59;2.58;;;1.42;;
57609;SDS011;43435;46.186;9.024;2024-01-15T13:50:24;2.88;;;1.67;;
57609;SDS011;43435;46.186;9.024;2024-01-15T13:52:50;2.95;;;1.42;;
57609;SDS011;43435;46.186;9.024;2024-01-15T13:55:15;3.45;;;1.77;;
57609;SDS011;43435;46.186;9.024;2024-01-15T13:57:40;2.65;;;1.75;;
57609;SDS011;43435;46.186;9.024;2024-01-15T14:00:06;2.22;;;1.45;;
57609;SDS011;43435;46.186;9.024;2024-01-15T14:02:36;3.58;;;1.88;;
57609;SDS011;43435;46.186;9.024;2024-01-15T14:05:02;2.38;;;1.50;;
57609;SDS011;43435;46.186;9.024;2024-01-15T14:07:28;2.55;;;1.45;;
57609;SDS011;43435;46.186;9.024;2024-01-15T14:09:53;4.35;;;1.50;;
57609;SDS011;43435;46.186;9.024;2024-01-15T14:12:18;5.10;;;1.55;;
57609;SDS011;43435;46.186;9.024;2024-01-15T14:14:43;3.15;;;1.55;;
57609;SDS011;43435;46.186;9.024;2024-01-15T14:17:09;2.42;;;1.70;;
57609;SDS011;43435;46.186;9.024;2024-01-15T14:19:34;3.15;;;1.70;;
57609;SDS011;43435;46.186;9.024;2024-01-15T14:22:00;2.75;;;1.50;;
57609;SDS011;43435;46.186;9.024;2024-01-15T14:24:25;3.10;;;1.45;;
57609;SDS011;43435;46.186;9.024;2024-01-15T14:26:50;2.95;;;1.70;;
57609;SDS011;43435;46.186;9.024;2024-01-15T14:29:16;3.25;;;1.67;;
57609;SDS011;43435;46.186;9.024;2024-01-15T14:31:43;2.50;;;1.60;;
57609;SDS011;43435;46.186;9.024;2024-01-15T14:34:08;5.30;;;1.52;;
57609;SDS011;43435;46.186;9.024;2024-01-15T14:36:34;4.75;;;1.75;;
57609;SDS011;43435;46.186;9.024;2024-01-15T14:38:59;4.35;;;1.88;;
57609;SDS011;43435;46.186;9.024;2024-01-15T14:41:25;3.17;;;2.00;;
57609;SDS011;43435;46.186;9.024;2024-01-15T14:43:50;3.08;;;1.80;;
57609;SDS011;43435;46.186;9.024;2024-01-15T14:46:15;3.92;;;1.52;;
57609;SDS011;43435;46.186;9.024;2024-01-15T14:48:41;5.35;;;1.83;;
57609;SDS011;43435;46.186;9.024;2024-01-15T14:51:06;5.45;;;1.90;;
57609;SDS011;43435;46.186;9.024;2024-01-15T14:53:31;5.07;;;1.88;;
57609;SDS011;43435;46.186;9.024;2024-01-15T14:55:57;3.55;;;2.08;;
57609;SDS011;43435;46.186;9.024;2024-01-15T14:58:22;2.65;;;1.40;;
57609;SDS011;43435;46.186;9.024;2024-01-15T15:00:47;6.07;;;1.67;;
57609;SDS011;43435;46.186;9.024;2024-01-15T15:03:13;2.00;;;1.50;;
57609;SDS011;43435;46.186;9.024;2024-01-15T15:05:40;3.25;;;1.50;;
57609;SDS011;43435;46.186;9.024;2024-01-15T15:08:06;3.75;;;1.90;;
57609;SDS011;43435;46.186;9.024;2024-01-15T15:10:33;3.92;;;1.70;;
57609;SDS011;43435;46.186;9.024;2024-01-15T15:12:59;2.40;;;1.50;;
57609;SDS011;43435;46.186;9.024;2024-01-15T15:15:24;4.10;;;1.85;;
57609;SDS011;43435;46.186;9.024;2024-01-15T15:17:50;4.07;;;1.73;;
57609;SDS011;43435;46.186;9.024;2024-01-15T15:20:15;4.20;;;1.90;;
57609;SDS011;43435;46.186;9.024;2024-01-15T15:22:40;4.20;;;2.20;;
57609;SDS011;43435;46.186;9.024;2024-01-15T15:25:06;4.95;;;2.40;;
57609;SDS011;43435;46.186;9.024;2024-01-15T15:27:33;3.97;;;2.03;;
57609;SDS011;43435;46.186;9.024;2024-01-15T15:29:59;6.88;;;1.75;;
57609;SDS011;43435;46.186;9.024;2024-01-15T15:32:25;3.97;;;1.75;;
57609;SDS011;43435;46.186;9.024;2024-01-15T15:34:50;3.53;;;2.15;;
57609;SDS011;43435;46.186;9.024;2024-01-15T15:37:15;4.05;;;1.92;;
57609;SDS011;43435;46.186;9.024;2024-01-15T15:39:41;4.35;;;1.95;;
57609;SDS011;43435;46.186;9.024;2024-01-15T15:42:07;4.38;;;2.08;;
57609;SDS011;43435;46.186;9.024;2024-01-15T15:44:33;6.32;;;2.38;;
57609;SDS011;43435;46.186;9.024;2024-01-15T15:46:58;5.63;;;2.03;;
57609;SDS011;43435;46.186;9.024;2024-01-15T15:49:23;3.80;;;2.05;;
57609;SDS011;43435;46.186;9.024;2024-01-15T15:51:49;3.67;;;1.95;;
57609;SDS011;43435;46.186;9.024;2024-01-15T15:54:14;3.17;;;2.13;;
57609;SDS011;43435;46.186;9.024;2024-01-15T15:56:39;5.63;;;2.40;;
57609;SDS011;43435;46.186;9.024;2024-01-15T15:59:05;5.50;;;2.20;;
57609;SDS011;43435;46.186;9.024;2024-01-15T16:01:31;3.85;;;1.80;;
57609;SDS011;43435;46.186;9.024;2024-01-15T16:03:57;3.45;;;2.00;;
57609;SDS011;43435;46.186;9.024;2024-01-15T16:06:23;4.07;;;2.10;;
57609;SDS011;43435;46.186;9.024;2024-01-15T16:08:49;5.78;;;2.10;;
57609;SDS011;43435;46.186;9.024;2024-01-15T16:11:14;4.82;;;2.20;;
57609;SDS011;43435;46.186;9.024;2024-01-15T16:13:39;4.78;;;2.35;;
57609;SDS011;43435;46.186;9.024;2024-01-15T16:16:05;3.65;;;2.25;;
57609;SDS011;43435;46.186;9.024;2024-01-15T16:18:30;4.28;;;2.13;;
57609;SDS011;43435;46.186;9.024;2024-01-15T16:20:56;7.75;;;2.85;;
57609;SDS011;43435;46.186;9.024;2024-01-15T16:23:21;3.90;;;2.20;;
57609;SDS011;43435;46.186;9.024;2024-01-15T16:25:46;3.83;;;2.05;;
57609;SDS011;43435;46.186;9.024;2024-01-15T16:28:12;5.13;;;2.20;;
57609;SDS011;43435;46.186;9.024;2024-01-15T16:30:37;3.95;;;2.30;;
57609;SDS011;43435;46.186;9.024;2024-01-15T16:33:02;4.13;;;2.42;;
57609;SDS011;43435;46.186;9.024;2024-01-15T16:35:28;6.18;;;2.75;;
57609;SDS011;43435;46.186;9.024;2024-01-15T16:37:53;4.72;;;2.60;;
57609;SDS011;43435;46.186;9.024;2024-01-15T16:40:18;5.72;;;3.10;;
57609;SDS011;43435;46.186;9.024;2024-01-15T16:42:43;4.85;;;2.95;;
57609;SDS011;43435;46.186;9.024;2024-01-15T16:45:10;5.63;;;2.97;;
57609;SDS011;43435;46.186;9.024;2024-01-15T16:47:36;6.07;;;3.03;;
57609;SDS011;43435;46.186;9.024;2024-01-15T16:50:03;6.22;;;3.30;;
57609;SDS011;43435;46.186;9.024;2024-01-15T16:52:29;5.85;;;3.08;;
57609;SDS011;43435;46.186;9.024;2024-01-15T16:54:54;5.72;;;3.30;;
57609;SDS011;43435;46.186;9.024;2024-01-15T16:57:20;6.65;;;2.70;;
57609;SDS011;43435;46.186;9.024;2024-01-15T16:59:46;4.05;;;2.65;;
57609;SDS011;43435;46.186;9.024;2024-01-15T17:02:11;4.95;;;3.03;;
57609;SDS011;43435;46.186;9.024;2024-01-15T17:04:36;4.68;;;2.88;;
57609;SDS011;43435;46.186;9.024;2024-01-15T17:07:02;6.30;;;3.10;;
57609;SDS011;43435;46.186;9.024;2024-01-15T17:09:27;6.68;;;2.83;;
57609;SDS011;43435;46.186;9.024;2024-01-15T17:11:52;5.07;;;2.83;;
57609;SDS011;43435;46.186;9.024;2024-01-15T17:14:18;4.88;;;3.03;;
57609;SDS011;43435;46.186;9.024;2024-01-15T17:16:43;6.72;;;2.92;;
57609;SDS011;43435;46.186;9.024;2024-01-15T17:19:11;5.38;;;3.10;;
57609;SDS011;43435;46.186;9.024;2024-01-15T17:21:36;5.57;;;3.10;;
57609;SDS011;43435;46.186;9.024;2024-01-15T17:24:02;6.70;;;3.00;;
57609;SDS011;43435;46.186;9.024;2024-01-15T17:26:28;4.53;;;2.90;;
57609;SDS011;43435;46.186;9.024;2024-01-15T17:28:53;6.18;;;2.90;;
57609;SDS011;43435;46.186;9.024;2024-01-15T17:31:20;4.55;;;3.25;;
57609;SDS011;43435;46.186;9.024;2024-01-15T17:33:45;5.57;;;3.22;;
57609;SDS011;43435;46.186;9.024;2024-01-15T17:36:10;6.55;;;3.53;;
57609;SDS011;43435;46.186;9.024;2024-01-15T17:38:36;6.05;;;3.08;;
57609;SDS011;43435;46.186;9.024;2024-01-15T17:41:01;7.40;;;3.20;;
57609;SDS011;43435;46.186;9.024;2024-01-15T17:43:27;5.68;;;3.83;;
57609;SDS011;43435;46.186;9.024;2024-01-15T17:45:52;4.55;;;2.95;;
57609;SDS011;43435;46.186;9.024;2024-01-15T17:48:20;3.90;;;2.50;;
57609;SDS011;43435;46.186;9.024;2024-01-15T17:50:45;4.05;;;2.50;;
57609;SDS011;43435;46.186;9.024;2024-01-15T17:53:11;5.35;;;2.70;;
57609;SDS011;43435;46.186;9.024;2024-01-15T17:55:37;3.63;;;2.60;;
57609;SDS011;43435;46.186;9.024;2024-01-15T17:58:02;4.55;;;2.53;;
57609;SDS011;43435;46.186;9.024;2024-01-15T18:00:27;4.38;;;2.50;;
57609;SDS011;43435;46.186;9.024;2024-01-15T18:02:53;3.90;;;2.33;;
57609;SDS011;43435;46.186;9.024;2024-01-15T18:05:20;4.60;;;2.60;;
57609;SDS011;43435;46.186;9.024;2024-01-15T18:07:46;4.50;;;2.30;;
57609;SDS011;43435;46.186;9.024;2024-01-15T18:10:11;5.50;;;2.38;;
57609;SDS011;43435;46.186;9.024;2024-01-15T18:12:36;7.32;;;2.58;;
57609;SDS011;43435;46.186;9.024;2024-01-15T18:15:02;4.25;;;2.58;;
57609;SDS011;43435;46.186;9.024;2024-01-15T18:17:28;3.83;;;2.10;;
57609;SDS011;43435;46.186;9.024;2024-01-15T18:19:53;4.97;;;2.78;;
57609;SDS011;43435;46.186;9.024;2024-01-15T18:22:18;6.57;;;2.55;;
57609;SDS011;43435;46.186;9.024;2024-01-15T18:24:44;3.20;;;2.33;;
57609;SDS011;43435;46.186;9.024;2024-01-15T18:27:10;4.47;;;2.72;;
57609;SDS011;43435;46.186;9.024;2024-01-15T18:29:35;2.15;;;1.70;;
57609;SDS011;43435;46.186;9.024;2024-01-15T18:32:01;3.25;;;1.92;;
57609;SDS011;43435;46.186;9.024;2024-01-15T18:34:26;3.65;;;1.80;;
57609;SDS011;43435;46.186;9.024;2024-01-15T18:36:51;3.97;;;1.88;;
57609;SDS011;43435;46.186;9.024;2024-01-15T18:39:17;2.95;;;1.70;;
57609;SDS011;43435;46.186;9.024;2024-01-15T18:41:42;3.35;;;1.88;;
57609;SDS011;43435;46.186;9.024;2024-01-15T18:44:08;4.13;;;1.90;;
57609;SDS011;43435;46.186;9.024;2024-01-15T18:46:35;4.22;;;1.95;;
57609;SDS011;43435;46.186;9.024;2024-01-15T18:49:00;3.65;;;1.80;;
57609;SDS011;43435;46.186;9.024;2024-01-15T18:51:25;3.92;;;1.95;;
57609;SDS011;43435;46.186;9.024;2024-01-15T18:53:51;2.53;;;1.60;;
57609;SDS011;43435;46.186;9.024;2024-01-15T18:56:16;3.05;;;1.63;;
57609;SDS011;43435;46.186;9.024;2024-01-15T18:58:42;2.30;;;1.30;;
57609;SDS011;43435;46.186;9.024;2024-01-15T19:01:09;2.22;;;1.30;;
57609;SDS011;43435;46.186;9.024;2024-01-15T19:03:35;2.30;;;1.25;;
57609;SDS011;43435;46.186;9.024;2024-01-15T19:06:01;2.15;;;1.23;;
57609;SDS011;43435;46.186;9.024;2024-01-15T19:08:26;2.08;;;1.23;;
57609;SDS011;43435;46.186;9.024;2024-01-15T19:10:51;3.30;;;1.00;;
57609;SDS011;43435;46.186;9.024;2024-01-15T19:13:17;2.15;;;1.17;;
57609;SDS011;43435;46.186;9.024;2024-01-15T19:15:42;1.48;;;0.75;;
57609;SDS011;43435;46.186;9.024;2024-01-15T19:18:07;3.47;;;1.33;;
57609;SDS011;43435;46.186;9.024;2024-01-15T19:20:33;2.53;;;1.23;;
57609;SDS011;43435;46.186;9.024;2024-01-15T19:22:58;2.72;;;0.98;;
57609;SDS011;43435;46.186;9.024;2024-01-15T19:25:25;1.20;;;0.80;;
57609;SDS011;43435;46.186;9.024;2024-01-15T19:27:51;1.88;;;1.00;;
57609;SDS011;43435;46.186;9.024;2024-01-15T19:30:16;2.20;;;1.00;;
57609;SDS011;43435;46.186;9.024;2024-01-15T19:32:42;2.25;;;1.15;;
57609;SDS011;43435;46.186;9.024;2024-01-15T19:35:09;2.38;;;1.38;;
57609;SDS011;43435;46.186;9.024;2024-01-15T19:37:35;2.58;;;0.82;;
57609;SDS011;43435;46.186;9.024;2024-01-15T19:40:01;1.70;;;1.00;;
57609;SDS011;43435;46.186;9.024;2024-01-15T19:42:27;1.75;;;0.90;;
57609;SDS011;43435;46.186;9.024;2024-01-15T19:44:53;2.13;;;0.93;;
57609;SDS011;43435;46.186;9.024;2024-01-15T19:47:18;1.17;;;0.60;;
57609;SDS011;43435;46.186;9.024;2024-01-15T19:49:44;1.83;;;1.00;;
57609;SDS011;43435;46.186;9.024;2024-01-15T19:52:12;1.70;;;1.10;;
57609;SDS011;43435;46.186;9.024;2024-01-15T19:54:37;2.15;;;1.00;;
57609;SDS011;43435;46.186;9.024;2024-01-15T19:57:03;2.20;;;1.10;;
57609;SDS011;43435;46.186;9.024;2024-01-15T19:59:28;2.67;;;1.10;;
57609;SDS011;43435;46.186;9.024;2024-01-15T20:01:53;2.47;;;1.00;;
57609;SDS011;43435;46.186;9.024;2024-01-15T20:04:19;2.97;;;1.00;;
57609;SDS011;43435;46.186;9.024;2024-01-15T20:06:44;2.08;;;0.80;;
57609;SDS011;43435;46.186;9.024;2024-01-15T20:09:09;1.85;;;0.80;;
57609;SDS011;43435;46.186;9.024;2024-01-15T20:11:34;2.00;;;1.10;;
57609;SDS011;43435;46.186;9.024;2024-01-15T20:14:00;1.27;;;0.77;;
57609;SDS011;43435;46.186;9.024;2024-01-15T20:16:25;1.38;;;0.80;;
